Etusivu
METAR-TAF:

METAR-TAF

Lentoasemat :

St. George, Alaska, Yhdysvallat

Leveyspiiri: 56-34-43N, Pituuspiiri: 169-39-41W, korkeus merenpinnasta: 38 m

Tämänhetkinen sää

Tämä raportti tehtiin 41 minuuttia sitten, kello 09.53 UTC
Tuuli 8 kn koillisesta
Lämpötila -5°C
Kosteus 73%
Ilmanpaine 1016 hPa
Näkyvyys: 16.1 km
Hajanaisia pilviä 3300 ft:n korkeudessa

METAR: PAPB 230953Z AUTO 04008KT 10SM SCT033 M05/M09 A3000 RMK AO2 SLP150 T10501089 TSNO

Aika: 01:34 (10:34 UTC)


TAF: puuttuu

Säähavainnot ja -ennusteet yli 4000 lentoasemalta (METAR- ja TAF-raportit).

Käytössä olevat sääasemat on merkitty karttaan keltaisilla ja punaisilla pisteillä.

Aseta hiiri pisteen päälle nähdäksesi sääaseman nimen.

Klikkaa sitten nähdäksesi säähavainnot ja -ennusteet.

Kartan vaihtaminen: klikkaa mustalla rastilla varustettuja vihreitä pisteitä, niin voit zoomata sisään; viivalla varustettua vihreää pistettä, niin voit zoomata ulos tai vihreitä nuolia, niin pääset viereisille kartoille.


METAR-TAF: